sensor_id;sensor_type;location;lat;lon;timestamp;temperature;humidity
32394;DHT22;18853;45.426;9.206;2022-09-13T00:00:42;28.50;42.80
32394;DHT22;18853;45.426;9.206;2022-09-13T00:03:08;28.40;43.10
32394;DHT22;18853;45.426;9.206;2022-09-13T00:05:34;28.40;42.90
32394;DHT22;18853;45.426;9.206;2022-09-13T00:08:00;28.30;42.90
32394;DHT22;18853;45.426;9.206;2022-09-13T00:10:25;28.40;43.00
32394;DHT22;18853;45.426;9.206;2022-09-13T00:12:51;28.30;42.80
32394;DHT22;18853;45.426;9.206;2022-09-13T00:15:17;28.30;42.90
32394;DHT22;18853;45.426;9.206;2022-09-13T00:17:42;28.30;43.10
32394;DHT22;18853;45.426;9.206;2022-09-13T00:20:08;28.20;43.20
32394;DHT22;18853;45.426;9.206;2022-09-13T00:22:34;28.20;43.40
32394;DHT22;18853;45.426;9.206;2022-09-13T00:24:59;28.20;43.20
32394;DHT22;18853;45.426;9.206;2022-09-13T00:27:25;28.20;43.50
32394;DHT22;18853;45.426;9.206;2022-09-13T00:29:50;28.20;43.20
32394;DHT22;18853;45.426;9.206;2022-09-13T00:32:16;28.10;43.20
32394;DHT22;18853;45.426;9.206;2022-09-13T00:34:42;28.10;43.20
32394;DHT22;18853;45.426;9.206;2022-09-13T00:37:07;28.10;43.20
32394;DHT22;18853;45.426;9.206;2022-09-13T00:39:33;28.10;43.20
32394;DHT22;18853;45.426;9.206;2022-09-13T00:41:59;28.10;43.70
32394;DHT22;18853;45.426;9.206;2022-09-13T00:47:09;28.10;43.10
32394;DHT22;18853;45.426;9.206;2022-09-13T00:49:35;28.10;43.40
32394;DHT22;18853;45.426;9.206;2022-09-13T00:52:04;28.00;43.90
32394;DHT22;18853;45.426;9.206;2022-09-13T00:54:35;28.00;43.80
32394;DHT22;18853;45.426;9.206;2022-09-13T00:57:04;28.00;43.80
32394;DHT22;18853;45.426;9.206;2022-09-13T00:59:32;28.00;43.80
32394;DHT22;18853;45.426;9.206;2022-09-13T01:02:01;28.00;43.90
32394;DHT22;18853;45.426;9.206;2022-09-13T01:04:28;28.00;43.90
32394;DHT22;18853;45.426;9.206;2022-09-13T01:06:56;28.00;43.70
32394;DHT22;18853;45.426;9.206;2022-09-13T01:09:23;27.90;44.00
32394;DHT22;18853;45.426;9.206;2022-09-13T01:11:54;27.90;44.20
32394;DHT22;18853;45.426;9.206;2022-09-13T01:14:29;27.80;44.40
32394;DHT22;18853;45.426;9.206;2022-09-13T01:16:54;27.80;44.10
32394;DHT22;18853;45.426;9.206;2022-09-13T01:19:20;27.80;44.60
32394;DHT22;18853;45.426;9.206;2022-09-13T01:27:18;27.80;44.40
32394;DHT22;18853;45.426;9.206;2022-09-13T01:37:52;27.60;44.70
32394;DHT22;18853;45.426;9.206;2022-09-13T01:40:23;27.50;44.50
32394;DHT22;18853;45.426;9.206;2022-09-13T01:45:26;27.50;44.70
32394;DHT22;18853;45.426;9.206;2022-09-13T01:48:07;27.40;45.10
32394;DHT22;18853;45.426;9.206;2022-09-13T01:55:41;27.50;44.70
32394;DHT22;18853;45.426;9.206;2022-09-13T02:00:35;27.50;45.30
32394;DHT22;18853;45.426;9.206;2022-09-13T02:03:06;27.50;45.40
32394;DHT22;18853;45.426;9.206;2022-09-13T02:08:14;27.50;45.20
32394;DHT22;18853;45.426;9.206;2022-09-13T02:10:43;27.40;45.20
32394;DHT22;18853;45.426;9.206;2022-09-13T02:13:12;27.40;45.40
32394;DHT22;18853;45.426;9.206;2022-09-13T02:15:48;27.40;45.40
32394;DHT22;18853;45.426;9.206;2022-09-13T02:18:21;27.40;45.50
32394;DHT22;18853;45.426;9.206;2022-09-13T02:20:49;27.40;45.40
32394;DHT22;18853;45.426;9.206;2022-09-13T02:23:17;27.40;45.40
32394;DHT22;18853;45.426;9.206;2022-09-13T02:25:45;27.40;45.40
32394;DHT22;18853;45.426;9.206;2022-09-13T02:28:11;27.40;45.30
32394;DHT22;18853;45.426;9.206;2022-09-13T02:30:40;27.40;45.20
32394;DHT22;18853;45.426;9.206;2022-09-13T02:33:11;27.30;45.70
32394;DHT22;18853;45.426;9.206;2022-09-13T02:35:39;27.30;46.00
32394;DHT22;18853;45.426;9.206;2022-09-13T02:38:09;27.30;46.00
32394;DHT22;18853;45.426;9.206;2022-09-13T02:40:38;27.30;46.60
32394;DHT22;18853;45.426;9.206;2022-09-13T02:43:09;27.40;46.00
32394;DHT22;18853;45.426;9.206;2022-09-13T02:45:39;27.40;46.00
32394;DHT22;18853;45.426;9.206;2022-09-13T02:48:10;27.40;46.00
32394;DHT22;18853;45.426;9.206;2022-09-13T02:53:25;27.40;46.00
32394;DHT22;18853;45.426;9.206;2022-09-13T03:01:10;27.30;46.10
32394;DHT22;18853;45.426;9.206;2022-09-13T03:03:36;27.30;45.90
32394;DHT22;18853;45.426;9.206;2022-09-13T03:06:01;27.30;45.80
32394;DHT22;18853;45.426;9.206;2022-09-13T03:08:27;27.20;46.10
32394;DHT22;18853;45.426;9.206;2022-09-13T03:21:22;27.10;46.60
32394;DHT22;18853;45.426;9.206;2022-09-13T03:26:34;27.10;46.70
32394;DHT22;18853;45.426;9.206;2022-09-13T03:31:48;27.10;46.40
32394;DHT22;18853;45.426;9.206;2022-09-13T03:36:56;27.00;46.50
32394;DHT22;18853;45.426;9.206;2022-09-13T03:39:27;27.00;47.10
32394;DHT22;18853;45.426;9.206;2022-09-13T03:41:56;27.00;47.30
32394;DHT22;18853;45.426;9.206;2022-09-13T03:44:23;27.00;47.10
32394;DHT22;18853;45.426;9.206;2022-09-13T03:46:54;27.00;46.70
32394;DHT22;18853;45.426;9.206;2022-09-13T03:49:21;27.00;46.70
32394;DHT22;18853;45.426;9.206;2022-09-13T03:51:48;26.90;46.90
32394;DHT22;18853;45.426;9.206;2022-09-13T03:54:21;26.90;47.10
32394;DHT22;18853;45.426;9.206;2022-09-13T03:59:31;26.80;47.20
32394;DHT22;18853;45.426;9.206;2022-09-13T04:01:57;26.90;46.80
32394;DHT22;18853;45.426;9.206;2022-09-13T04:04:23;26.80;46.90
32394;DHT22;18853;45.426;9.206;2022-09-13T04:06:48;26.80;46.70
32394;DHT22;18853;45.426;9.206;2022-09-13T04:09:14;26.80;46.80
32394;DHT22;18853;45.426;9.206;2022-09-13T04:11:39;26.80;47.30
32394;DHT22;18853;45.426;9.206;2022-09-13T04:14:05;26.80;47.10
32394;DHT22;18853;45.426;9.206;2022-09-13T04:16:30;26.80;46.80
32394;DHT22;18853;45.426;9.206;2022-09-13T04:18:56;26.80;46.60
32394;DHT22;18853;45.426;9.206;2022-09-13T04:21:21;26.70;47.20
32394;DHT22;18853;45.426;9.206;2022-09-13T04:23:48;26.70;47.30
32394;DHT22;18853;45.426;9.206;2022-09-13T04:26:14;26.70;47.00
32394;DHT22;18853;45.426;9.206;2022-09-13T04:28:39;26.70;47.10
32394;DHT22;18853;45.426;9.206;2022-09-13T04:31:05;26.70;47.10
32394;DHT22;18853;45.426;9.206;2022-09-13T04:33:30;26.70;47.30
32394;DHT22;18853;45.426;9.206;2022-09-13T04:35:56;26.70;47.40
32394;DHT22;18853;45.426;9.206;2022-09-13T04:38:22;26.70;47.50
32394;DHT22;18853;45.426;9.206;2022-09-13T04:40:52;26.70;47.50
32394;DHT22;18853;45.426;9.206;2022-09-13T04:43:18;26.70;47.20
32394;DHT22;18853;45.426;9.206;2022-09-13T04:45:44;26.70;47.00
32394;DHT22;18853;45.426;9.206;2022-09-13T04:48:10;26.70;47.50
32394;DHT22;18853;45.426;9.206;2022-09-13T04:50:36;26.60;47.60
32394;DHT22;18853;45.426;9.206;2022-09-13T04:53:01;26.70;47.30
32394;DHT22;18853;45.426;9.206;2022-09-13T04:55:27;26.60;47.20
32394;DHT22;18853;45.426;9.206;2022-09-13T04:57:53;26.50;47.30
32394;DHT22;18853;45.426;9.206;2022-09-13T05:00:21;26.50;47.40
32394;DHT22;18853;45.426;9.206;2022-09-13T05:02:46;26.50;47.90
32394;DHT22;18853;45.426;9.206;2022-09-13T05:05:12;26.40;48.00
32394;DHT22;18853;45.426;9.206;2022-09-13T05:07:37;26.50;47.80
32394;DHT22;18853;45.426;9.206;2022-09-13T05:10:03;26.50;47.60
32394;DHT22;18853;45.426;9.206;2022-09-13T05:12:29;26.50;47.50
32394;DHT22;18853;45.426;9.206;2022-09-13T05:14:55;26.40;47.60
32394;DHT22;18853;45.426;9.206;2022-09-13T05:17:20;26.30;47.60
32394;DHT22;18853;45.426;9.206;2022-09-13T05:19:46;26.30;47.70
32394;DHT22;18853;45.426;9.206;2022-09-13T05:22:12;26.30;47.70
32394;DHT22;18853;45.426;9.206;2022-09-13T05:24:38;26.20;47.80
32394;DHT22;18853;45.426;9.206;2022-09-13T05:27:03;26.30;47.80
32394;DHT22;18853;45.426;9.206;2022-09-13T05:29:29;26.30;47.80
32394;DHT22;18853;45.426;9.206;2022-09-13T05:31:54;26.30;47.90
32394;DHT22;18853;45.426;9.206;2022-09-13T05:34:20;26.20;48.20
32394;DHT22;18853;45.426;9.206;2022-09-13T05:36:45;26.40;48.40
32394;DHT22;18853;45.426;9.206;2022-09-13T05:39:12;26.40;48.50
32394;DHT22;18853;45.426;9.206;2022-09-13T05:41:38;26.40;47.90
32394;DHT22;18853;45.426;9.206;2022-09-13T05:44:03;26.50;47.70
32394;DHT22;18853;45.426;9.206;2022-09-13T05:46:29;26.40;48.70
32394;DHT22;18853;45.426;9.206;2022-09-13T05:48:56;26.40;48.40
32394;DHT22;18853;45.426;9.206;2022-09-13T05:51:22;26.50;48.30
32394;DHT22;18853;45.426;9.206;2022-09-13T05:53:48;26.50;48.30
32394;DHT22;18853;45.426;9.206;2022-09-13T05:56:24;26.50;48.10
32394;DHT22;18853;45.426;9.206;2022-09-13T05:58:50;26.50;47.90
32394;DHT22;18853;45.426;9.206;2022-09-13T06:01:20;26.50;47.90
32394;DHT22;18853;45.426;9.206;2022-09-13T06:03:46;26.50;47.80
32394;DHT22;18853;45.426;9.206;2022-09-13T06:06:12;26.40;47.90
32394;DHT22;18853;45.426;9.206;2022-09-13T06:08:38;26.50;48.00
32394;DHT22;18853;45.426;9.206;2022-09-13T06:11:04;26.50;47.60
32394;DHT22;18853;45.426;9.206;2022-09-13T06:13:30;26.50;47.70
32394;DHT22;18853;45.426;9.206;2022-09-13T06:15:56;26.50;47.80
32394;DHT22;18853;45.426;9.206;2022-09-13T06:18:22;26.40;47.50
32394;DHT22;18853;45.426;9.206;2022-09-13T06:20:49;26.40;47.70
32394;DHT22;18853;45.426;9.206;2022-09-13T06:23:14;26.30;48.10
32394;DHT22;18853;45.426;9.206;2022-09-13T06:25:40;26.20;48.20
32394;DHT22;18853;45.426;9.206;2022-09-13T06:28:06;26.20;48.50
32394;DHT22;18853;45.426;9.206;2022-09-13T06:30:32;26.20;48.90
32394;DHT22;18853;45.426;9.206;2022-09-13T06:32:58;26.30;48.90
32394;DHT22;18853;45.426;9.206;2022-09-13T06:35:23;26.30;48.70
32394;DHT22;18853;45.426;9.206;2022-09-13T06:37:49;26.40;48.60
32394;DHT22;18853;45.426;9.206;2022-09-13T06:40:14;26.40;48.60
32394;DHT22;18853;45.426;9.206;2022-09-13T06:42:41;26.40;48.40
32394;DHT22;18853;45.426;9.206;2022-09-13T06:45:07;26.40;48.60
32394;DHT22;18853;45.426;9.206;2022-09-13T06:47:32;26.40;48.50
32394;DHT22;18853;45.426;9.206;2022-09-13T06:49:58;26.40;48.50
32394;DHT22;18853;45.426;9.206;2022-09-13T06:52:25;26.40;48.60
32394;DHT22;18853;45.426;9.206;2022-09-13T06:54:50;26.50;48.30
32394;DHT22;18853;45.426;9.206;2022-09-13T06:57:16;26.50;48.40
32394;DHT22;18853;45.426;9.206;2022-09-13T06:59:42;26.50;48.50
32394;DHT22;18853;45.426;9.206;2022-09-13T07:02:08;26.50;48.70
32394;DHT22;18853;45.426;9.206;2022-09-13T07:04:34;26.40;48.90
32394;DHT22;18853;45.426;9.206;2022-09-13T07:06:59;26.50;48.70
32394;DHT22;18853;45.426;9.206;2022-09-13T07:09:25;26.40;48.50
32394;DHT22;18853;45.426;9.206;2022-09-13T07:11:51;26.50;48.30
32394;DHT22;18853;45.426;9.206;2022-09-13T07:14:18;26.40;48.70
32394;DHT22;18853;45.426;9.206;2022-09-13T07:16:44;26.40;48.40
32394;DHT22;18853;45.426;9.206;2022-09-13T07:19:14;26.50;48.80
32394;DHT22;18853;45.426;9.206;2022-09-13T07:21:40;26.50;48.60
32394;DHT22;18853;45.426;9.206;2022-09-13T07:24:06;26.60;48.30
32394;DHT22;18853;45.426;9.206;2022-09-13T07:26:32;26.60;48.10
32394;DHT22;18853;45.426;9.206;2022-09-13T07:28:58;26.50;48.40
32394;DHT22;18853;45.426;9.206;2022-09-13T07:31:25;26.50;48.70
32394;DHT22;18853;45.426;9.206;2022-09-13T07:33:55;26.50;48.80
32394;DHT22;18853;45.426;9.206;2022-09-13T07:36:21;26.60;48.30
32394;DHT22;18853;45.426;9.206;2022-09-13T07:38:46;26.50;48.70
32394;DHT22;18853;45.426;9.206;2022-09-13T07:41:14;26.60;48.60
32394;DHT22;18853;45.426;9.206;2022-09-13T07:43:40;26.60;49.10
32394;DHT22;18853;45.426;9.206;2022-09-13T07:46:06;26.60;48.10
32394;DHT22;18853;45.426;9.206;2022-09-13T07:48:33;26.60;48.20
32394;DHT22;18853;45.426;9.206;2022-09-13T07:50:59;26.60;47.90
32394;DHT22;18853;45.426;9.206;2022-09-13T07:53:25;26.50;48.30
32394;DHT22;18853;45.426;9.206;2022-09-13T07:55:51;26.60;48.30
32394;DHT22;18853;45.426;9.206;2022-09-13T07:58:16;26.70;48.30
32394;DHT22;18853;45.426;9.206;2022-09-13T08:00:43;26.70;47.80
32394;DHT22;18853;45.426;9.206;2022-09-13T08:03:09;26.80;48.00
32394;DHT22;18853;45.426;9.206;2022-09-13T08:05:38;26.80;47.90
32394;DHT22;18853;45.426;9.206;2022-09-13T08:08:04;26.80;47.70
32394;DHT22;18853;45.426;9.206;2022-09-13T08:10:31;26.80;48.00
32394;DHT22;18853;45.426;9.206;2022-09-13T08:12:57;26.80;48.00
32394;DHT22;18853;45.426;9.206;2022-09-13T08:15:22;26.90;47.70
32394;DHT22;18853;45.426;9.206;2022-09-13T08:17:48;26.90;47.80
32394;DHT22;18853;45.426;9.206;2022-09-13T08:20:13;26.90;47.90
32394;DHT22;18853;45.426;9.206;2022-09-13T08:22:39;26.90;48.20
32394;DHT22;18853;45.426;9.206;2022-09-13T08:25:04;26.90;48.10
32394;DHT22;18853;45.426;9.206;2022-09-13T08:27:30;26.90;48.30
32394;DHT22;18853;45.426;9.206;2022-09-13T08:29:55;26.90;48.10
32394;DHT22;18853;45.426;9.206;2022-09-13T08:32:21;27.00;48.20
32394;DHT22;18853;45.426;9.206;2022-09-13T08:34:46;27.00;48.10
32394;DHT22;18853;45.426;9.206;2022-09-13T08:37:12;27.00;48.10
32394;DHT22;18853;45.426;9.206;2022-09-13T08:39:37;27.00;47.90
32394;DHT22;18853;45.426;9.206;2022-09-13T08:42:07;27.10;47.70
32394;DHT22;18853;45.426;9.206;2022-09-13T08:44:37;27.10;47.80
32394;DHT22;18853;45.426;9.206;2022-09-13T08:49:40;27.00;48.00
32394;DHT22;18853;45.426;9.206;2022-09-13T08:54:41;27.00;47.60
32394;DHT22;18853;45.426;9.206;2022-09-13T09:04:45;27.00;47.30
32394;DHT22;18853;45.426;9.206;2022-09-13T09:07:19;27.00;47.00
32394;DHT22;18853;45.426;9.206;2022-09-13T09:13:05;27.20;46.80
32394;DHT22;18853;45.426;9.206;2022-09-13T09:15:22;27.30;46.80
32394;DHT22;18853;45.426;9.206;2022-09-13T09:21:05;27.40;46.20
32394;DHT22;18853;45.426;9.206;2022-09-13T09:23:18;27.40;45.80
32394;DHT22;18853;45.426;9.206;2022-09-13T09:25:45;27.40;45.70
32394;DHT22;18853;45.426;9.206;2022-09-13T09:28:16;27.30;46.00
32394;DHT22;18853;45.426;9.206;2022-09-13T09:31:00;27.30;45.80
32394;DHT22;18853;45.426;9.206;2022-09-13T09:41:00;27.60;45.30
32394;DHT22;18853;45.426;9.206;2022-09-13T09:43:34;27.60;44.70
32394;DHT22;18853;45.426;9.206;2022-09-13T09:46:03;27.60;44.30
32394;DHT22;18853;45.426;9.206;2022-09-13T09:48:33;27.60;44.20
32394;DHT22;18853;45.426;9.206;2022-09-13T09:51:01;27.70;43.80
32394;DHT22;18853;45.426;9.206;2022-09-13T09:53:30;27.60;43.30
32394;DHT22;18853;45.426;9.206;2022-09-13T09:56:51;27.60;43.30
32394;DHT22;18853;45.426;9.206;2022-09-13T09:58:44;27.60;43.20
32394;DHT22;18853;45.426;9.206;2022-09-13T10:01:15;27.60;43.50
32394;DHT22;18853;45.426;9.206;2022-09-13T10:03:41;27.70;43.60
32394;DHT22;18853;45.426;9.206;2022-09-13T10:06:12;27.80;43.80
32394;DHT22;18853;45.426;9.206;2022-09-13T10:08:39;27.70;44.10
32394;DHT22;18853;45.426;9.206;2022-09-13T10:11:05;27.70;44.40
32394;DHT22;18853;45.426;9.206;2022-09-13T10:13:30;27.70;44.50
32394;DHT22;18853;45.426;9.206;2022-09-13T10:16:00;27.70;44.70
32394;DHT22;18853;45.426;9.206;2022-09-13T10:18:27;27.80;44.50
32394;DHT22;18853;45.426;9.206;2022-09-13T10:21:01;27.90;44.10
32394;DHT22;18853;45.426;9.206;2022-09-13T10:23:27;27.90;44.90
32394;DHT22;18853;45.426;9.206;2022-09-13T10:28:28;27.70;44.40
32394;DHT22;18853;45.426;9.206;2022-09-13T10:31:05;27.80;44.80
32394;DHT22;18853;45.426;9.206;2022-09-13T10:33:37;27.80;44.30
32394;DHT22;18853;45.426;9.206;2022-09-13T10:36:07;27.80;44.20
32394;DHT22;18853;45.426;9.206;2022-09-13T10:38:37;27.80;44.10
32394;DHT22;18853;45.426;9.206;2022-09-13T10:41:05;27.70;44.20
32394;DHT22;18853;45.426;9.206;2022-09-13T10:43:31;27.70;44.10
32394;DHT22;18853;45.426;9.206;2022-09-13T10:45:57;27.80;43.60
32394;DHT22;18853;45.426;9.206;2022-09-13T10:48:23;28.00;43.20
32394;DHT22;18853;45.426;9.206;2022-09-13T10:51:17;28.10;42.80
32394;DHT22;18853;45.426;9.206;2022-09-13T10:53:45;28.20;42.60
32394;DHT22;18853;45.426;9.206;2022-09-13T10:56:22;28.20;42.70
32394;DHT22;18853;45.426;9.206;2022-09-13T10:58:49;28.20;42.90
32394;DHT22;18853;45.426;9.206;2022-09-13T11:01:28;28.20;42.50
32394;DHT22;18853;45.426;9.206;2022-09-13T11:06:53;28.10;43.00
32394;DHT22;18853;45.426;9.206;2022-09-13T11:09:23;28.10;43.00
32394;DHT22;18853;45.426;9.206;2022-09-13T11:11:54;28.20;43.30
32394;DHT22;18853;45.426;9.206;2022-09-13T11:14:26;28.30;42.30
32394;DHT22;18853;45.426;9.206;2022-09-13T11:30:21;28.90;41.20
32394;DHT22;18853;45.426;9.206;2022-09-13T11:32:53;28.80;42.20
32394;DHT22;18853;45.426;9.206;2022-09-13T11:35:36;28.70;42.20
32394;DHT22;18853;45.426;9.206;2022-09-13T11:38:40;28.90;42.20
32394;DHT22;18853;45.426;9.206;2022-09-13T11:43:34;29.10;40.10
32394;DHT22;18853;45.426;9.206;2022-09-13T11:53:42;29.30;39.10
32394;DHT22;18853;45.426;9.206;2022-09-13T11:56:17;29.30;38.50
32394;DHT22;18853;45.426;9.206;2022-09-13T11:58:47;29.50;38.40
32394;DHT22;18853;45.426;9.206;2022-09-13T12:01:16;29.60;38.40
32394;DHT22;18853;45.426;9.206;2022-09-13T12:06:14;29.80;38.10
32394;DHT22;18853;45.426;9.206;2022-09-13T12:08:44;29.90;38.20
32394;DHT22;18853;45.426;9.206;2022-09-13T12:11:18;30.00;38.10
32394;DHT22;18853;45.426;9.206;2022-09-13T12:13:46;30.10;38.10
32394;DHT22;18853;45.426;9.206;2022-09-13T12:16:35;30.20;38.10
32394;DHT22;18853;45.426;9.206;2022-09-13T12:21:37;30.30;38.20
32394;DHT22;18853;45.426;9.206;2022-09-13T12:24:18;30.00;38.50
32394;DHT22;18853;45.426;9.206;2022-09-13T12:26:55;30.00;38.90
32394;DHT22;18853;45.426;9.206;2022-09-13T12:29:36;30.30;37.70
32394;DHT22;18853;45.426;9.206;2022-09-13T12:32:04;30.40;38.10
32394;DHT22;18853;45.426;9.206;2022-09-13T12:37:09;30.60;37.10
32394;DHT22;18853;45.426;9.206;2022-09-13T12:52:54;30.50;36.30
32394;DHT22;18853;45.426;9.206;2022-09-13T12:57:56;30.50;36.50
32394;DHT22;18853;45.426;9.206;2022-09-13T13:00:28;30.50;36.50
32394;DHT22;18853;45.426;9.206;2022-09-13T13:03:00;30.50;36.50
32394;DHT22;18853;45.426;9.206;2022-09-13T13:05:30;30.50;36.90
32394;DHT22;18853;45.426;9.206;2022-09-13T13:08:00;30.50;37.20
32394;DHT22;18853;45.426;9.206;2022-09-13T13:10:35;30.50;37.20
32394;DHT22;18853;45.426;9.206;2022-09-13T13:15:58;30.80;36.80
32394;DHT22;18853;45.426;9.206;2022-09-13T13:29:12;31.00;36.20
32394;DHT22;18853;45.426;9.206;2022-09-13T13:39:11;31.10;36.40
32394;DHT22;18853;45.426;9.206;2022-09-13T13:41:38;31.20;36.00
32394;DHT22;18853;45.426;9.206;2022-09-13T13:46:45;31.40;36.20
32394;DHT22;18853;45.426;9.206;2022-09-13T13:59:48;31.80;35.30
32394;DHT22;18853;45.426;9.206;2022-09-13T14:02:15;31.70;35.60
32394;DHT22;18853;45.426;9.206;2022-09-13T14:07:34;31.70;35.80
32394;DHT22;18853;45.426;9.206;2022-09-13T14:15:29;31.50;36.20
32394;DHT22;18853;45.426;9.206;2022-09-13T14:20:18;31.50;36.20
32394;DHT22;18853;45.426;9.206;2022-09-13T14:22:45;31.50;36.20
32394;DHT22;18853;45.426;9.206;2022-09-13T14:27:43;31.40;35.80
32394;DHT22;18853;45.426;9.206;2022-09-13T14:32:44;31.30;35.50
32394;DHT22;18853;45.426;9.206;2022-09-13T14:35:55;31.30;35.50
32394;DHT22;18853;45.426;9.206;2022-09-13T14:40:45;31.30;35.80
32394;DHT22;18853;45.426;9.206;2022-09-13T14:43:13;31.30;35.70
32394;DHT22;18853;45.426;9.206;2022-09-13T14:45:40;31.30;35.60
32394;DHT22;18853;45.426;9.206;2022-09-13T14:50:34;31.40;35.20
32394;DHT22;18853;45.426;9.206;2022-09-13T14:53:02;31.50;35.40
32394;DHT22;18853;45.426;9.206;2022-09-13T14:55:30;31.60;35.30
32394;DHT22;18853;45.426;9.206;2022-09-13T14:57:58;31.70;35.00
32394;DHT22;18853;45.426;9.206;2022-09-13T15:00:27;31.70;35.00
32394;DHT22;18853;45.426;9.206;2022-09-13T15:02:55;31.70;35.40
32394;DHT22;18853;45.426;9.206;2022-09-13T15:05:23;31.80;35.00
32394;DHT22;18853;45.426;9.206;2022-09-13T15:07:49;31.90;34.70
32394;DHT22;18853;45.426;9.206;2022-09-13T15:20:55;32.10;34.60
32394;DHT22;18853;45.426;9.206;2022-09-13T15:25:52;32.00;34.90
32394;DHT22;18853;45.426;9.206;2022-09-13T15:28:25;32.00;35.00
32394;DHT22;18853;45.426;9.206;2022-09-13T15:30:51;32.00;35.00
32394;DHT22;18853;45.426;9.206;2022-09-13T15:33:24;32.00;35.10
32394;DHT22;18853;45.426;9.206;2022-09-13T15:35:50;31.90;35.10
32394;DHT22;18853;45.426;9.206;2022-09-13T15:38:30;31.90;35.10
32394;DHT22;18853;45.426;9.206;2022-09-13T15:41:00;31.80;35.10
32394;DHT22;18853;45.426;9.206;2022-09-13T15:43:26;31.80;35.20
32394;DHT22;18853;45.426;9.206;2022-09-13T15:45:52;31.70;35.30
32394;DHT22;18853;45.426;9.206;2022-09-13T15:48:30;31.60;35.40
32394;DHT22;18853;45.426;9.206;2022-09-13T15:51:09;31.60;35.30
32394;DHT22;18853;45.426;9.206;2022-09-13T15:53:35;31.50;35.50
32394;DHT22;18853;45.426;9.206;2022-09-13T15:56:02;31.50;35.50
32394;DHT22;18853;45.426;9.206;2022-09-13T15:58:27;31.40;35.20
32394;DHT22;18853;45.426;9.206;2022-09-13T16:00:53;31.40;35.40
32394;DHT22;18853;45.426;9.206;2022-09-13T16:03:19;31.40;35.60
32394;DHT22;18853;45.426;9.206;2022-09-13T16:05:44;31.40;35.30
32394;DHT22;18853;45.426;9.206;2022-09-13T16:08:10;31.40;35.40
32394;DHT22;18853;45.426;9.206;2022-09-13T16:10:35;31.40;35.50
32394;DHT22;18853;45.426;9.206;2022-09-13T16:13:01;31.30;35.30
32394;DHT22;18853;45.426;9.206;2022-09-13T16:15:26;31.30;35.60
32394;DHT22;18853;45.426;9.206;2022-09-13T16:17:52;31.40;35.80
32394;DHT22;18853;45.426;9.206;2022-09-13T16:20:18;31.30;35.60
32394;DHT22;18853;45.426;9.206;2022-09-13T16:22:44;31.30;35.60
32394;DHT22;18853;45.426;9.206;2022-09-13T16:25:12;31.30;35.60
32394;DHT22;18853;45.426;9.206;2022-09-13T16:27:38;31.30;35.50
32394;DHT22;18853;45.426;9.206;2022-09-13T16:30:04;31.30;35.60
32394;DHT22;18853;45.426;9.206;2022-09-13T16:32:30;31.30;35.90
32394;DHT22;18853;45.426;9.206;2022-09-13T16:34:56;31.30;36.00
32394;DHT22;18853;45.426;9.206;2022-09-13T16:37:22;31.30;36.10
32394;DHT22;18853;45.426;9.206;2022-09-13T16:39:47;31.30;36.10
32394;DHT22;18853;45.426;9.206;2022-09-13T16:42:13;31.30;36.50
32394;DHT22;18853;45.426;9.206;2022-09-13T16:44:40;31.30;36.70
32394;DHT22;18853;45.426;9.206;2022-09-13T16:47:05;31.30;36.90
32394;DHT22;18853;45.426;9.206;2022-09-13T16:49:31;31.30;37.20
32394;DHT22;18853;45.426;9.206;2022-09-13T16:51:56;31.30;37.20
32394;DHT22;18853;45.426;9.206;2022-09-13T16:54:26;31.30;37.20
32394;DHT22;18853;45.426;9.206;2022-09-13T16:56:52;31.30;37.10
32394;DHT22;18853;45.426;9.206;2022-09-13T16:59:17;31.30;37.40
32394;DHT22;18853;45.426;9.206;2022-09-13T17:01:43;31.30;37.40
32394;DHT22;18853;45.426;9.206;2022-09-13T17:04:09;31.30;37.20
32394;DHT22;18853;45.426;9.206;2022-09-13T17:06:35;31.20;37.20
32394;DHT22;18853;45.426;9.206;2022-09-13T17:09:02;31.20;37.30
32394;DHT22;18853;45.426;9.206;2022-09-13T17:11:30;31.20;37.20
32394;DHT22;18853;45.426;9.206;2022-09-13T17:13:57;31.20;37.20
32394;DHT22;18853;45.426;9.206;2022-09-13T17:16:33;31.10;37.20
32394;DHT22;18853;45.426;9.206;2022-09-13T17:19:00;31.10;37.30
32394;DHT22;18853;45.426;9.206;2022-09-13T17:21:26;31.10;37.30
32394;DHT22;18853;45.426;9.206;2022-09-13T17:23:52;31.10;37.40
32394;DHT22;18853;45.426;9.206;2022-09-13T17:26:18;31.10;37.50
32394;DHT22;18853;45.426;9.206;2022-09-13T17:28:44;31.00;37.40
32394;DHT22;18853;45.426;9.206;2022-09-13T17:31:09;31.00;37.50
32394;DHT22;18853;45.426;9.206;2022-09-13T17:33:35;31.00;37.50
32394;DHT22;18853;45.426;9.206;2022-09-13T17:36:01;31.00;37.60
32394;DHT22;18853;45.426;9.206;2022-09-13T17:38:27;31.00;37.70
32394;DHT22;18853;45.426;9.206;2022-09-13T17:40:59;30.90;37.70
32394;DHT22;18853;45.426;9.206;2022-09-13T17:43:25;30.90;38.60
32394;DHT22;18853;45.426;9.206;2022-09-13T17:45:50;30.90;39.20
32394;DHT22;18853;45.426;9.206;2022-09-13T17:48:16;30.80;38.20
32394;DHT22;18853;45.426;9.206;2022-09-13T17:50:41;30.80;38.20
32394;DHT22;18853;45.426;9.206;2022-09-13T17:53:07;30.80;38.20
32394;DHT22;18853;45.426;9.206;2022-09-13T17:55:33;30.80;38.20
32394;DHT22;18853;45.426;9.206;2022-09-13T17:57:58;30.80;38.30
32394;DHT22;18853;45.426;9.206;2022-09-13T18:00:24;30.70;38.40
32394;DHT22;18853;45.426;9.206;2022-09-13T18:02:50;30.70;38.40
32394;DHT22;18853;45.426;9.206;2022-09-13T18:05:16;30.70;38.50
32394;DHT22;18853;45.426;9.206;2022-09-13T18:07:41;30.70;38.70
32394;DHT22;18853;45.426;9.206;2022-09-13T18:10:07;30.70;38.80
32394;DHT22;18853;45.426;9.206;2022-09-13T18:12:32;30.70;38.90
32394;DHT22;18853;45.426;9.206;2022-09-13T18:14:58;30.70;38.90
32394;DHT22;18853;45.426;9.206;2022-09-13T18:17:24;30.60;39.10
32394;DHT22;18853;45.426;9.206;2022-09-13T18:19:49;30.60;39.30
32394;DHT22;18853;45.426;9.206;2022-09-13T18:22:15;30.50;38.90
32394;DHT22;18853;45.426;9.206;2022-09-13T18:24:40;30.40;39.20
32394;DHT22;18853;45.426;9.206;2022-09-13T18:27:06;30.40;39.30
32394;DHT22;18853;45.426;9.206;2022-09-13T18:29:31;30.30;39.30
32394;DHT22;18853;45.426;9.206;2022-09-13T18:31:57;30.30;39.20
32394;DHT22;18853;45.426;9.206;2022-09-13T18:34:23;30.30;39.10
32394;DHT22;18853;45.426;9.206;2022-09-13T18:36:49;30.30;38.90
32394;DHT22;18853;45.426;9.206;2022-09-13T18:39:15;30.20;38.80
32394;DHT22;18853;45.426;9.206;2022-09-13T18:41:41;30.20;38.80
32394;DHT22;18853;45.426;9.206;2022-09-13T18:44:09;30.20;38.70
32394;DHT22;18853;45.426;9.206;2022-09-13T18:46:35;30.20;38.60
32394;DHT22;18853;45.426;9.206;2022-09-13T18:49:02;30.10;38.50
32394;DHT22;18853;45.426;9.206;2022-09-13T18:51:29;30.10;38.50
32394;DHT22;18853;45.426;9.206;2022-09-13T18:53:54;30.20;38.60
32394;DHT22;18853;45.426;9.206;2022-09-13T18:56:20;30.10;38.60
32394;DHT22;18853;45.426;9.206;2022-09-13T18:58:47;30.10;38.60